PAL1815 RPLC-RPMD
Flight info
| Callsign | PAL1815 |
|---|---|
| Flight time | N/A |
| Altitude | 39000 |
| Route | OLIVA3F OLIVA W16 MIA B462 MASBA W9A BN W9 RIMAR RIMAR2R |
| Aircraft | A333/H-SDE3GHIJ2J3J5M1RVWXY/LB2D1 |
Departure
| Time | 2026-05-06 12:06 |
|---|---|
| Airport | Clark International Airport / Clark Air Base (RPLC) |
Arrival
| Time | N/A |
|---|---|
| Airport | Francisco Bangoy International Airport (RPMD) |
| Time | Latitude | Longitude | Altitude | Speed | Heading |
|---|---|---|---|---|---|
| 2026-05-06 11:38 | 15.19555 | 120.56149 | 476 ft | 0 kts | 22° |
| 2026-05-06 11:53 | 15.19544 | 120.56144 | 476 ft | 2 kts | 22° |
| 2026-05-06 11:53 | 15.19530 | 120.56138 | 476 ft | 2 kts | 22° |
| 2026-05-06 11:54 | 15.19516 | 120.56132 | 476 ft | 2 kts | 20° |
| 2026-05-06 11:54 | 15.19502 | 120.56127 | 476 ft | 2 kts | 21° |
| 2026-05-06 11:54 | 15.19488 | 120.56122 | 476 ft | 2 kts | 28° |
| 2026-05-06 11:54 | 15.19477 | 120.56111 | 476 ft | 2 kts | 71° |
| 2026-05-06 11:55 | 15.19475 | 120.56096 | 476 ft | 1 kts | 104° |
| 2026-05-06 11:55 | 15.19477 | 120.56091 | 476 ft | 1 kts | 112° |
| 2026-05-06 11:55 | 15.19477 | 120.56088 | 476 ft | 0 kts | 111° |
| 2026-05-06 11:59 | 15.19477 | 120.56089 | 476 ft | 0 kts | 111° |
| 2026-05-06 11:59 | 15.19469 | 120.56111 | 476 ft | 8 kts | 111° |
| 2026-05-06 11:59 | 15.19446 | 120.56174 | 476 ft | 10 kts | 111° |
| 2026-05-06 11:59 | 15.19431 | 120.56213 | 476 ft | 5 kts | 111° |
| 2026-05-06 12:00 | 15.19424 | 120.56245 | 476 ft | 4 kts | 82° |
| 2026-05-06 12:00 | 15.19439 | 120.56266 | 476 ft | 3 kts | 36° |
| 2026-05-06 12:00 | 15.19476 | 120.56287 | 476 ft | 12 kts | 27° |
| 2026-05-06 12:00 | 15.19571 | 120.56328 | 476 ft | 14 kts | 21° |
| 2026-05-06 12:01 | 15.19657 | 120.56363 | 476 ft | 14 kts | 22° |
| 2026-05-06 12:01 | 15.19729 | 120.56393 | 476 ft | 14 kts | 22° |
| 2026-05-06 12:01 | 15.19807 | 120.56425 | 476 ft | 13 kts | 21° |
| 2026-05-06 12:01 | 15.19907 | 120.56463 | 476 ft | 13 kts | 20° |
| 2026-05-06 12:02 | 15.20000 | 120.56499 | 476 ft | 12 kts | 21° |
| 2026-05-06 12:02 | 15.20090 | 120.56535 | 476 ft | 11 kts | 21° |
| 2026-05-06 12:02 | 15.20129 | 120.56565 | 476 ft | 6 kts | 62° |
| 2026-05-06 12:02 | 15.20139 | 120.56606 | 476 ft | 6 kts | 83° |
| 2026-05-06 12:03 | 15.20148 | 120.56667 | 476 ft | 10 kts | 81° |
| 2026-05-06 12:03 | 15.20156 | 120.56714 | 476 ft | 4 kts | 81° |
| 2026-05-06 12:03 | 15.20158 | 120.56734 | 476 ft | 0 kts | 87° |
| 2026-05-06 12:04 | 15.20158 | 120.56735 | 476 ft | 2 kts | 87° |
| 2026-05-06 12:05 | 15.20153 | 120.56773 | 476 ft | 7 kts | 104° |
| 2026-05-06 12:05 | 15.20137 | 120.56825 | 476 ft | 6 kts | 122° |
| 2026-05-06 12:05 | 15.20099 | 120.56836 | 476 ft | 5 kts | 193° |
| 2026-05-06 12:05 | 15.20062 | 120.56824 | 476 ft | 7 kts | 200° |
| 2026-05-06 12:06 | 15.19861 | 120.56746 | 476 ft | 71 kts | 201° |
| 2026-05-06 12:06 | 15.19123 | 120.56453 | 476 ft | 153 kts | 201° |
| 2026-05-06 12:06 | 15.18038 | 120.55994 | 959 ft | 179 kts | 204° |
| 2026-05-06 12:06 | 15.16873 | 120.55414 | 1754 ft | 194 kts | 207° |
| 2026-05-06 12:07 | 15.15639 | 120.54929 | 2640 ft | 205 kts | 199° |
| 2026-05-06 12:07 | 15.14284 | 120.54425 | 3021 ft | 218 kts | 202° |
| 2026-05-06 12:07 | 15.12851 | 120.53854 | 3344 ft | 240 kts | 202° |
| 2026-05-06 12:07 | 15.11262 | 120.53349 | 3939 ft | 248 kts | 185° |
| 2026-05-06 12:08 | 15.09728 | 120.53578 | 4578 ft | 249 kts | 155° |
| 2026-05-06 12:08 | 15.08357 | 120.54688 | 5355 ft | 246 kts | 123° |
| 2026-05-06 12:08 | 15.07603 | 120.56239 | 6111 ft | 244 kts | 111° |
| 2026-05-06 12:08 | 15.06966 | 120.57774 | 6815 ft | 247 kts | 111° |
| 2026-05-06 12:09 | 15.06298 | 120.59381 | 7573 ft | 248 kts | 111° |
| 2026-05-06 12:09 | 15.05615 | 120.61009 | 8351 ft | 247 kts | 111° |
| 2026-05-06 12:09 | 15.04929 | 120.62633 | 9066 ft | 248 kts | 111° |
| 2026-05-06 12:09 | 15.04237 | 120.64269 | 9768 ft | 249 kts | 111° |
| 2026-05-06 12:10 | 15.03550 | 120.65930 | 10336 ft | 256 kts | 110° |
| 2026-05-06 12:10 | 15.02610 | 120.67535 | 10628 ft | 278 kts | 133° |
| 2026-05-06 12:10 | 15.01139 | 120.68933 | 10905 ft | 297 kts | 134° |
| 2026-05-06 12:10 | 14.99577 | 120.70468 | 11162 ft | 315 kts | 134° |
| 2026-05-06 12:11 | 14.97957 | 120.72066 | 11361 ft | 334 kts | 134° |
| 2026-05-06 12:11 | 14.96226 | 120.73776 | 11538 ft | 352 kts | 134° |
| 2026-05-06 12:11 | 14.94405 | 120.75575 | 11696 ft | 369 kts | 134° |
| 2026-05-06 12:11 | 14.92534 | 120.77423 | 12071 ft | 376 kts | 134° |
| 2026-05-06 12:12 | 14.90648 | 120.79287 | 12618 ft | 378 kts | 135° |
| 2026-05-06 12:12 | 14.88759 | 120.81149 | 13107 ft | 381 kts | 135° |
| 2026-05-06 12:12 | 14.86826 | 120.83059 | 13568 ft | 384 kts | 135° |
| 2026-05-06 12:12 | 14.84887 | 120.84971 | 13999 ft | 388 kts | 135° |
| 2026-05-06 12:13 | 14.82913 | 120.86919 | 14449 ft | 391 kts | 135° |
| 2026-05-06 12:13 | 14.80961 | 120.88844 | 14872 ft | 393 kts | 135° |
| 2026-05-06 12:13 | 14.78953 | 120.90819 | 15304 ft | 396 kts | 135° |
| 2026-05-06 12:13 | 14.76965 | 120.92776 | 15717 ft | 398 kts | 135° |
| 2026-05-06 12:14 | 14.74946 | 120.94767 | 16128 ft | 401 kts | 135° |
| 2026-05-06 12:14 | 14.72945 | 120.96737 | 16534 ft | 403 kts | 135° |
| 2026-05-06 12:14 | 14.70919 | 120.98733 | 16948 ft | 405 kts | 135° |
| 2026-05-06 12:14 | 14.68881 | 121.00738 | 17347 ft | 407 kts | 135° |
| 2026-05-06 12:15 | 14.67012 | 121.02579 | 17640 ft | 411 kts | 135° |
| 2026-05-06 12:15 | 14.66658 | 121.02927 | 17705 ft | 411 kts | 135° |
| 2026-05-06 12:15 | 14.64571 | 121.04981 | 18090 ft | 413 kts | 135° |
| 2026-05-06 12:15 | 14.62484 | 121.07035 | 18429 ft | 417 kts | 135° |
| 2026-05-06 12:16 | 14.60407 | 121.09077 | 18795 ft | 419 kts | 135° |
| 2026-05-06 12:16 | 14.58294 | 121.11155 | 19171 ft | 421 kts | 135° |
| 2026-05-06 12:16 | 14.56182 | 121.13231 | 19533 ft | 423 kts | 135° |
| 2026-05-06 12:16 | 14.54063 | 121.15314 | 19862 ft | 425 kts | 135° |
| 2026-05-06 12:17 | 14.51926 | 121.17413 | 20206 ft | 427 kts | 135° |
| 2026-05-06 12:17 | 14.49757 | 121.19543 | 20541 ft | 429 kts | 135° |
| 2026-05-06 12:17 | 14.47609 | 121.21653 | 20856 ft | 431 kts | 135° |
| 2026-05-06 12:17 | 14.45407 | 121.23814 | 21161 ft | 433 kts | 135° |
| 2026-05-06 12:18 | 14.43243 | 121.25936 | 21464 ft | 435 kts | 135° |
| 2026-05-06 12:18 | 14.41038 | 121.28100 | 21749 ft | 437 kts | 135° |
| 2026-05-06 12:18 | 14.38803 | 121.30293 | 22021 ft | 439 kts | 135° |
| 2026-05-06 12:18 | 14.36591 | 121.32462 | 22293 ft | 441 kts | 135° |
| 2026-05-06 12:19 | 14.34349 | 121.34660 | 22565 ft | 443 kts | 135° |
| 2026-05-06 12:19 | 14.32108 | 121.36855 | 22833 ft | 445 kts | 135° |
| 2026-05-06 12:19 | 14.29866 | 121.39052 | 23088 ft | 447 kts | 135° |
| 2026-05-06 12:19 | 14.27602 | 121.41270 | 23351 ft | 449 kts | 135° |
| 2026-05-06 12:20 | 14.25333 | 121.43491 | 23604 ft | 451 kts | 135° |
| 2026-05-06 12:20 | 14.23044 | 121.45731 | 23870 ft | 452 kts | 135° |
| 2026-05-06 12:20 | 14.20754 | 121.47972 | 24132 ft | 454 kts | 135° |
| 2026-05-06 12:20 | 14.18466 | 121.50211 | 24395 ft | 455 kts | 136° |
| 2026-05-06 12:21 | 14.16158 | 121.52467 | 24648 ft | 457 kts | 136° |
| 2026-05-06 12:21 | 14.13874 | 121.54700 | 24892 ft | 459 kts | 136° |
| 2026-05-06 12:21 | 14.11543 | 121.56979 | 25139 ft | 461 kts | 136° |
| 2026-05-06 12:21 | 14.09220 | 121.59247 | 25375 ft | 462 kts | 136° |
| 2026-05-06 12:22 | 14.06868 | 121.61544 | 25614 ft | 464 kts | 136° |
| 2026-05-06 12:22 | 14.04495 | 121.63862 | 25865 ft | 466 kts | 136° |
| 2026-05-06 12:22 | 14.02136 | 121.66165 | 26117 ft | 467 kts | 136° |
| 2026-05-06 12:22 | 13.99782 | 121.68462 | 26333 ft | 470 kts | 136° |
| 2026-05-06 12:23 | 13.97404 | 121.70782 | 26570 ft | 471 kts | 136° |
| 2026-05-06 12:23 | 13.95003 | 121.73124 | 26796 ft | 473 kts | 136° |
| 2026-05-06 12:23 | 13.92619 | 121.75449 | 27034 ft | 475 kts | 136° |
| 2026-05-06 12:23 | 13.90191 | 121.77815 | 27248 ft | 477 kts | 136° |
| 2026-05-06 12:24 | 13.87778 | 121.80167 | 27499 ft | 478 kts | 136° |
| 2026-05-06 12:24 | 13.85468 | 121.82674 | 27689 ft | 480 kts | 129° |
| 2026-05-06 12:24 | 13.83342 | 121.85301 | 27892 ft | 482 kts | 130° |
| 2026-05-06 12:24 | 13.81183 | 121.87953 | 28111 ft | 483 kts | 130° |
| 2026-05-06 12:25 | 13.78999 | 121.90630 | 28316 ft | 485 kts | 130° |
| 2026-05-06 12:25 | 13.76867 | 121.93245 | 28512 ft | 486 kts | 130° |
| 2026-05-06 12:25 | 13.74734 | 121.95857 | 28682 ft | 488 kts | 130° |
| 2026-05-06 12:25 | 13.72561 | 121.98519 | 28873 ft | 489 kts | 130° |
| 2026-05-06 12:26 | 13.70345 | 122.01232 | 29123 ft | 489 kts | 130° |
| 2026-05-06 12:26 | 13.68162 | 122.03904 | 29413 ft | 488 kts | 130° |
| 2026-05-06 12:26 | 13.65990 | 122.06561 | 29712 ft | 487 kts | 130° |
| 2026-05-06 12:26 | 13.63844 | 122.09187 | 30003 ft | 487 kts | 130° |
| 2026-05-06 12:27 | 13.61645 | 122.11875 | 30322 ft | 485 kts | 130° |
| 2026-05-06 12:27 | 13.59499 | 122.14497 | 30612 ft | 485 kts | 130° |
| 2026-05-06 12:27 | 13.57328 | 122.17151 | 30890 ft | 484 kts | 130° |
| 2026-05-06 12:27 | 13.55153 | 122.19807 | 31169 ft | 484 kts | 130° |
| 2026-05-06 12:28 | 13.52975 | 122.22468 | 31463 ft | 483 kts | 131° |
| 2026-05-06 12:28 | 13.50815 | 122.25105 | 31748 ft | 482 kts | 131° |
| 2026-05-06 12:28 | 13.48674 | 122.27718 | 32054 ft | 481 kts | 131° |
| 2026-05-06 12:28 | 13.46527 | 122.30338 | 32348 ft | 480 kts | 131° |
| 2026-05-06 12:29 | 13.44382 | 122.32953 | 32629 ft | 479 kts | 131° |
| 2026-05-06 12:29 | 13.42238 | 122.35568 | 32958 ft | 478 kts | 131° |
| 2026-05-06 12:29 | 13.40083 | 122.38194 | 33276 ft | 477 kts | 131° |
| 2026-05-06 12:29 | 13.37938 | 122.40807 | 33611 ft | 476 kts | 131° |
| 2026-05-06 12:30 | 13.35808 | 122.43402 | 33928 ft | 476 kts | 131° |
| 2026-05-06 12:30 | 13.33671 | 122.46005 | 34262 ft | 475 kts | 131° |
| 2026-05-06 12:30 | 13.31522 | 122.48621 | 34593 ft | 474 kts | 131° |
| 2026-05-06 12:30 | 13.29419 | 122.51180 | 34930 ft | 473 kts | 131° |
| 2026-05-06 12:31 | 13.27277 | 122.53789 | 35270 ft | 472 kts | 131° |
| 2026-05-06 12:31 | 13.25178 | 122.56341 | 35573 ft | 472 kts | 131° |
| 2026-05-06 12:31 | 13.23050 | 122.58929 | 35892 ft | 471 kts | 131° |
| 2026-05-06 12:31 | 13.20965 | 122.61465 | 36205 ft | 470 kts | 131° |
| 2026-05-06 12:32 | 13.18827 | 122.63999 | 36454 ft | 468 kts | 137° |
| 2026-05-06 12:32 | 13.16247 | 122.66055 | 36671 ft | 464 kts | 149° |
| 2026-05-06 12:32 | 13.13542 | 122.67813 | 36947 ft | 464 kts | 149° |
| 2026-05-06 12:32 | 13.10817 | 122.69650 | 37221 ft | 464 kts | 148° |
| 2026-05-06 12:33 | 13.08143 | 122.71469 | 37448 ft | 464 kts | 148° |
| 2026-05-06 12:33 | 13.05443 | 122.73309 | 37676 ft | 464 kts | 148° |
| 2026-05-06 12:33 | 13.02767 | 122.75134 | 37881 ft | 464 kts | 148° |
| 2026-05-06 12:33 | 13.00043 | 122.76994 | 38089 ft | 464 kts | 148° |
| 2026-05-06 12:34 | 12.97348 | 122.78831 | 38310 ft | 464 kts | 148° |
| 2026-05-06 12:34 | 12.94668 | 122.80660 | 38531 ft | 463 kts | 148° |
| 2026-05-06 12:34 | 12.91991 | 122.82484 | 38764 ft | 463 kts | 148° |
| 2026-05-06 12:34 | 12.89278 | 122.84334 | 38934 ft | 462 kts | 148° |
| 2026-05-06 12:35 | 12.83920 | 122.87986 | 38915 ft | 459 kts | 148° |
| 2026-05-06 12:35 | 12.78713 | 122.91531 | 38899 ft | 458 kts | 148° |
| 2026-05-06 12:36 | 12.73552 | 122.95044 | 38888 ft | 458 kts | 148° |
| 2026-05-06 12:36 | 12.68315 | 122.98607 | 38878 ft | 458 kts | 148° |
| 2026-05-06 12:37 | 12.63027 | 123.02203 | 38876 ft | 458 kts | 148° |
| 2026-05-06 12:37 | 12.57722 | 123.05809 | 38875 ft | 457 kts | 148° |
| 2026-05-06 12:38 | 12.52400 | 123.09425 | 38876 ft | 456 kts | 148° |
| 2026-05-06 12:38 | 12.47094 | 123.13028 | 38875 ft | 456 kts | 148° |
| 2026-05-06 12:39 | 12.41794 | 123.16625 | 38880 ft | 456 kts | 148° |
| 2026-05-06 12:39 | 12.36504 | 123.20213 | 38882 ft | 455 kts | 148° |
| 2026-05-06 12:40 | 12.31193 | 123.23813 | 38880 ft | 455 kts | 147° |
| 2026-05-06 12:40 | 12.25899 | 123.27400 | 38882 ft | 455 kts | 147° |
| 2026-05-06 12:41 | 12.20590 | 123.30997 | 38887 ft | 454 kts | 147° |
| 2026-05-06 12:41 | 12.15297 | 123.34580 | 38890 ft | 453 kts | 147° |
| 2026-05-06 12:42 | 12.10042 | 123.38135 | 38887 ft | 453 kts | 147° |
| 2026-05-06 12:42 | 12.04931 | 123.41593 | 38883 ft | 454 kts | 147° |
| 2026-05-06 12:43 | 11.99625 | 123.45180 | 38882 ft | 454 kts | 147° |
| 2026-05-06 12:43 | 11.94339 | 123.48752 | 38880 ft | 454 kts | 147° |
| 2026-05-06 12:44 | 11.89068 | 123.52311 | 38878 ft | 453 kts | 147° |
| 2026-05-06 12:44 | 11.83840 | 123.55840 | 38880 ft | 454 kts | 147° |
| 2026-05-06 12:45 | 11.78571 | 123.59396 | 38881 ft | 453 kts | 147° |
| 2026-05-06 12:46 | 11.70662 | 123.64730 | 38880 ft | 452 kts | 147° |
| 2026-05-06 12:46 | 11.65425 | 123.68259 | 38879 ft | 452 kts | 147° |
| 2026-05-06 12:47 | 11.60155 | 123.71809 | 38879 ft | 452 kts | 147° |
| 2026-05-06 12:47 | 11.54892 | 123.75352 | 38877 ft | 452 kts | 147° |
| 2026-05-06 12:48 | 11.49638 | 123.78889 | 38879 ft | 452 kts | 147° |
| 2026-05-06 12:48 | 11.44396 | 123.82416 | 38883 ft | 452 kts | 146° |
| 2026-05-06 12:49 | 11.39115 | 123.85967 | 38887 ft | 452 kts | 146° |
| 2026-05-06 12:49 | 11.33864 | 123.89497 | 38887 ft | 453 kts | 147° |
| 2026-05-06 12:50 | 11.28588 | 123.93041 | 38884 ft | 452 kts | 146° |
| 2026-05-06 12:50 | 11.23422 | 123.96509 | 38884 ft | 452 kts | 146° |
| 2026-05-06 12:51 | 11.18151 | 124.00048 | 38890 ft | 451 kts | 146° |
| 2026-05-06 12:51 | 11.12901 | 124.03571 | 38891 ft | 452 kts | 146° |
| 2026-05-06 12:52 | 11.07602 | 124.07124 | 38885 ft | 454 kts | 146° |
| 2026-05-06 12:52 | 11.02346 | 124.10649 | 38879 ft | 453 kts | 146° |
| 2026-05-06 12:53 | 10.97100 | 124.14163 | 38876 ft | 453 kts | 146° |
| 2026-05-06 12:53 | 10.91866 | 124.17669 | 38871 ft | 452 kts | 146° |
| 2026-05-06 12:54 | 10.86608 | 124.21188 | 38868 ft | 451 kts | 146° |
| 2026-05-06 12:54 | 10.81339 | 124.24714 | 38866 ft | 451 kts | 146° |
| 2026-05-06 12:55 | 10.76100 | 124.28219 | 38867 ft | 451 kts | 146° |
| 2026-05-06 12:55 | 10.70866 | 124.31719 | 38869 ft | 450 kts | 146° |
| 2026-05-06 12:56 | 10.65622 | 124.35224 | 38872 ft | 450 kts | 146° |
| 2026-05-06 12:56 | 10.60376 | 124.38729 | 38869 ft | 449 kts | 146° |
| 2026-05-06 12:57 | 10.55135 | 124.42228 | 38867 ft | 448 kts | 146° |
| 2026-05-06 12:57 | 10.49933 | 124.45701 | 38869 ft | 448 kts | 146° |
| 2026-05-06 12:58 | 10.44682 | 124.49204 | 38867 ft | 448 kts | 146° |
| 2026-05-06 12:58 | 10.39613 | 124.52585 | 38866 ft | 448 kts | 146° |
| 2026-05-06 12:59 | 10.34497 | 124.55996 | 38863 ft | 448 kts | 146° |
| 2026-05-06 12:59 | 10.29287 | 124.59468 | 38865 ft | 448 kts | 146° |
| 2026-05-06 13:00 | 10.24090 | 124.62930 | 38866 ft | 447 kts | 146° |
| 2026-05-06 13:00 | 10.18860 | 124.66413 | 38876 ft | 447 kts | 146° |
| 2026-05-06 13:01 | 10.13668 | 124.69869 | 38880 ft | 446 kts | 146° |
| 2026-05-06 13:01 | 10.08533 | 124.73286 | 38877 ft | 446 kts | 146° |
| 2026-05-06 13:02 | 10.03870 | 124.76387 | 38879 ft | 446 kts | 146° |